KSPI/SPI METAR and TAF weather

Enter ICAO airport designator
Station Type Date Time Source
KSPI METAR 2019/06/17 04:52 UTC NOAA

KSPI 170452Z AUTO 03006KT 10SM CLR 21/19 A2990 RMK AO2 SLP122 T02060194 $


Station Type Date Time Source
KSPI Decoded METAR 2019/06/17 04:52 UTC NOAA

ABRAHAM LINCOLN CAPITAL AIRPORT , IL, United States (KSPI) 39-51N 89-41W 181M
Jun 17, 2019 - 12:52 AM EDT / 2019.06.17 0452 UTC
Wind: from the NNE (030 degrees) at 7 MPH (6 KT):0
Visibility: 10 mile(s):0
Sky conditions: clear
Temperature: 69.1 F (20.6 C)
Dew Point: 66.9 F (19.4 C)
Relative Humidity: 92%
Pressure (altimeter): 29.9 in. Hg (1012 hPa)
ob: KSPI 170452Z AUTO 03006KT 10SM CLR 21/19 A2990 RMK AO2 SLP122 T02060194
cycle: 5

Station Type Date Time Source
KSPI TAF 2019/06/16 18:15 UTC NOAA

TAF KSPI 161812Z 1618/1718 20008KT P6SM BKN015
FM162000 VRB04KT P6SM BKN035
FM170900 VRB04KT P6SM VCSH OVC035
FM171200 VRB04KT P6SM OVC015

Example: see airport list